sensor_id;sensor_type;location;lat;lon;timestamp;P1;durP1;ratioP1;P2;durP2;ratioP2
41685;SDS011;27370;42.764;23.432;2024-03-22T00:02:15;7.45;;;3.95;;
41685;SDS011;27370;42.764;23.432;2024-03-22T00:04:41;6.15;;;3.22;;
41685;SDS011;27370;42.764;23.432;2024-03-22T00:07:06;6.68;;;3.03;;
41685;SDS011;27370;42.764;23.432;2024-03-22T00:09:32;10.60;;;3.90;;
41685;SDS011;27370;42.764;23.432;2024-03-22T00:11:57;10.63;;;4.13;;
41685;SDS011;27370;42.764;23.432;2024-03-22T00:14:23;8.75;;;3.70;;
41685;SDS011;27370;42.764;23.432;2024-03-22T00:16:48;9.88;;;3.85;;
41685;SDS011;27370;42.764;23.432;2024-03-22T00:19:14;8.35;;;4.47;;
41685;SDS011;27370;42.764;23.432;2024-03-22T00:21:39;12.15;;;4.35;;
41685;SDS011;27370;42.764;23.432;2024-03-22T00:24:05;10.05;;;5.13;;
41685;SDS011;27370;42.764;23.432;2024-03-22T00:26:30;9.60;;;4.43;;
41685;SDS011;27370;42.764;23.432;2024-03-22T00:28:56;11.40;;;4.85;;
41685;SDS011;27370;42.764;23.432;2024-03-22T00:31:23;8.23;;;4.63;;
41685;SDS011;27370;42.764;23.432;2024-03-22T00:33:49;13.02;;;5.68;;
41685;SDS011;27370;42.764;23.432;2024-03-22T00:36:14;16.17;;;6.47;;
41685;SDS011;27370;42.764;23.432;2024-03-22T00:38:40;23.83;;;10.40;;
41685;SDS011;27370;42.764;23.432;2024-03-22T00:41:05;19.20;;;9.63;;
41685;SDS011;27370;42.764;23.432;2024-03-22T00:43:33;23.02;;;9.07;;
41685;SDS011;27370;42.764;23.432;2024-03-22T00:45:58;19.88;;;8.43;;
41685;SDS011;27370;42.764;23.432;2024-03-22T00:48:24;20.83;;;7.90;;
41685;SDS011;27370;42.764;23.432;2024-03-22T00:50:49;20.35;;;8.80;;
41685;SDS011;27370;42.764;23.432;2024-03-22T00:53:15;15.80;;;6.65;;
41685;SDS011;27370;42.764;23.432;2024-03-22T00:55:40;23.13;;;8.75;;
41685;SDS011;27370;42.764;23.432;2024-03-22T00:58:06;21.88;;;8.73;;
41685;SDS011;27370;42.764;23.432;2024-03-22T01:00:31;16.88;;;7.72;;
41685;SDS011;27370;42.764;23.432;2024-03-22T01:02:56;18.38;;;9.40;;
41685;SDS011;27370;42.764;23.432;2024-03-22T01:05:22;21.52;;;10.48;;
41685;SDS011;27370;42.764;23.432;2024-03-22T01:07:47;16.45;;;7.47;;
41685;SDS011;27370;42.764;23.432;2024-03-22T01:10:13;26.98;;;10.63;;
41685;SDS011;27370;42.764;23.432;2024-03-22T01:12:38;15.30;;;8.32;;
41685;SDS011;27370;42.764;23.432;2024-03-22T01:15:05;16.15;;;9.00;;
41685;SDS011;27370;42.764;23.432;2024-03-22T01:17:31;19.02;;;9.23;;
41685;SDS011;27370;42.764;23.432;2024-03-22T01:19:57;18.05;;;8.35;;
41685;SDS011;27370;42.764;23.432;2024-03-22T01:22:22;15.10;;;6.68;;
41685;SDS011;27370;42.764;23.432;2024-03-22T01:24:48;10.30;;;5.50;;
41685;SDS011;27370;42.764;23.432;2024-03-22T01:27:14;20.17;;;8.60;;
41685;SDS011;27370;42.764;23.432;2024-03-22T01:29:39;15.23;;;6.55;;
41685;SDS011;27370;42.764;23.432;2024-03-22T01:32:05;17.80;;;7.53;;
41685;SDS011;27370;42.764;23.432;2024-03-22T01:34:30;14.85;;;6.57;;
41685;SDS011;27370;42.764;23.432;2024-03-22T01:36:56;14.52;;;7.22;;
41685;SDS011;27370;42.764;23.432;2024-03-22T01:39:21;10.02;;;4.88;;
41685;SDS011;27370;42.764;23.432;2024-03-22T01:41:48;11.23;;;6.65;;
41685;SDS011;27370;42.764;23.432;2024-03-22T01:44:13;20.67;;;8.23;;
41685;SDS011;27370;42.764;23.432;2024-03-22T01:46:39;17.05;;;9.52;;
41685;SDS011;27370;42.764;23.432;2024-03-22T01:49:06;24.98;;;9.05;;
41685;SDS011;27370;42.764;23.432;2024-03-22T01:51:32;10.55;;;6.68;;
41685;SDS011;27370;42.764;23.432;2024-03-22T01:53:57;14.43;;;8.02;;
41685;SDS011;27370;42.764;23.432;2024-03-22T01:56:24;17.20;;;8.32;;
41685;SDS011;27370;42.764;23.432;2024-03-22T01:58:50;20.05;;;8.15;;
41685;SDS011;27370;42.764;23.432;2024-03-22T02:01:16;19.40;;;9.27;;
41685;SDS011;27370;42.764;23.432;2024-03-22T02:03:41;20.65;;;9.18;;
41685;SDS011;27370;42.764;23.432;2024-03-22T02:06:06;17.83;;;9.63;;
41685;SDS011;27370;42.764;23.432;2024-03-22T02:08:32;21.38;;;10.25;;
41685;SDS011;27370;42.764;23.432;2024-03-22T02:10:57;15.35;;;9.25;;
41685;SDS011;27370;42.764;23.432;2024-03-22T02:13:23;18.10;;;9.80;;
41685;SDS011;27370;42.764;23.432;2024-03-22T02:15:48;18.00;;;7.18;;
41685;SDS011;27370;42.764;23.432;2024-03-22T02:18:13;14.68;;;6.97;;
41685;SDS011;27370;42.764;23.432;2024-03-22T02:20:39;17.98;;;7.78;;
41685;SDS011;27370;42.764;23.432;2024-03-22T02:23:04;15.57;;;7.95;;
41685;SDS011;27370;42.764;23.432;2024-03-22T02:25:30;17.95;;;6.88;;
41685;SDS011;27370;42.764;23.432;2024-03-22T02:27:55;26.63;;;9.20;;
41685;SDS011;27370;42.764;23.432;2024-03-22T02:30:21;21.48;;;9.75;;
41685;SDS011;27370;42.764;23.432;2024-03-22T02:32:46;17.30;;;7.32;;
41685;SDS011;27370;42.764;23.432;2024-03-22T02:35:11;19.40;;;8.02;;
41685;SDS011;27370;42.764;23.432;2024-03-22T02:37:37;21.17;;;7.63;;
41685;SDS011;27370;42.764;23.432;2024-03-22T02:40:02;14.02;;;6.25;;
41685;SDS011;27370;42.764;23.432;2024-03-22T02:42:28;10.20;;;5.70;;
41685;SDS011;27370;42.764;23.432;2024-03-22T02:44:54;10.18;;;5.10;;
41685;SDS011;27370;42.764;23.432;2024-03-22T02:47:19;12.95;;;6.43;;
41685;SDS011;27370;42.764;23.432;2024-03-22T02:49:45;9.68;;;4.60;;
41685;SDS011;27370;42.764;23.432;2024-03-22T02:52:10;12.07;;;5.20;;
41685;SDS011;27370;42.764;23.432;2024-03-22T02:54:36;13.88;;;6.53;;
41685;SDS011;27370;42.764;23.432;2024-03-22T02:57:01;12.00;;;6.68;;
41685;SDS011;27370;42.764;23.432;2024-03-22T02:59:27;13.13;;;6.43;;
41685;SDS011;27370;42.764;23.432;2024-03-22T03:01:53;17.13;;;8.05;;
41685;SDS011;27370;42.764;23.432;2024-03-22T03:04:18;19.60;;;7.47;;
41685;SDS011;27370;42.764;23.432;2024-03-22T03:06:44;12.48;;;5.57;;
41685;SDS011;27370;42.764;23.432;2024-03-22T03:09:11;14.02;;;6.65;;
41685;SDS011;27370;42.764;23.432;2024-03-22T03:11:39;15.07;;;6.00;;
41685;SDS011;27370;42.764;23.432;2024-03-22T03:14:05;25.17;;;7.13;;
41685;SDS011;27370;42.764;23.432;2024-03-22T03:16:31;9.18;;;5.93;;
41685;SDS011;27370;42.764;23.432;2024-03-22T03:18:56;10.50;;;5.55;;
41685;SDS011;27370;42.764;23.432;2024-03-22T03:21:22;8.93;;;5.00;;
41685;SDS011;27370;42.764;23.432;2024-03-22T03:23:47;11.32;;;5.15;;
41685;SDS011;27370;42.764;23.432;2024-03-22T03:26:13;11.50;;;4.75;;
41685;SDS011;27370;42.764;23.432;2024-03-22T03:28:38;15.90;;;6.25;;
41685;SDS011;27370;42.764;23.432;2024-03-22T03:31:04;11.23;;;6.32;;
41685;SDS011;27370;42.764;23.432;2024-03-22T03:33:30;13.23;;;5.88;;
41685;SDS011;27370;42.764;23.432;2024-03-22T03:35:55;12.25;;;5.68;;
41685;SDS011;27370;42.764;23.432;2024-03-22T03:38:21;6.47;;;4.25;;
41685;SDS011;27370;42.764;23.432;2024-03-22T03:40:47;13.10;;;6.43;;
41685;SDS011;27370;42.764;23.432;2024-03-22T03:43:13;11.55;;;5.95;;
41685;SDS011;27370;42.764;23.432;2024-03-22T03:45:38;13.05;;;6.47;;
41685;SDS011;27370;42.764;23.432;2024-03-22T03:48:04;13.63;;;7.93;;
41685;SDS011;27370;42.764;23.432;2024-03-22T03:50:29;10.20;;;6.47;;
41685;SDS011;27370;42.764;23.432;2024-03-22T03:52:55;13.93;;;6.55;;
41685;SDS011;27370;42.764;23.432;2024-03-22T03:55:21;10.48;;;6.50;;
41685;SDS011;27370;42.764;23.432;2024-03-22T03:57:47;9.25;;;5.75;;
41685;SDS011;27370;42.764;23.432;2024-03-22T04:00:12;17.67;;;7.95;;
41685;SDS011;27370;42.764;23.432;2024-03-22T04:02:38;15.98;;;6.07;;
41685;SDS011;27370;42.764;23.432;2024-03-22T04:05:03;12.85;;;6.35;;
41685;SDS011;27370;42.764;23.432;2024-03-22T04:07:29;14.50;;;7.97;;
41685;SDS011;27370;42.764;23.432;2024-03-22T04:09:55;18.13;;;8.13;;
41685;SDS011;27370;42.764;23.432;2024-03-22T04:12:20;12.27;;;5.07;;
41685;SDS011;27370;42.764;23.432;2024-03-22T04:14:45;19.75;;;7.38;;
41685;SDS011;27370;42.764;23.432;2024-03-22T04:17:11;18.05;;;9.23;;
41685;SDS011;27370;42.764;23.432;2024-03-22T04:19:37;16.33;;;8.73;;
41685;SDS011;27370;42.764;23.432;2024-03-22T04:22:02;13.43;;;7.32;;
41685;SDS011;27370;42.764;23.432;2024-03-22T04:24:28;14.68;;;7.93;;
41685;SDS011;27370;42.764;23.432;2024-03-22T04:26:53;25.63;;;9.88;;
41685;SDS011;27370;42.764;23.432;2024-03-22T04:29:19;21.42;;;8.32;;
41685;SDS011;27370;42.764;23.432;2024-03-22T04:31:44;16.98;;;8.85;;
41685;SDS011;27370;42.764;23.432;2024-03-22T04:34:09;16.33;;;9.48;;
41685;SDS011;27370;42.764;23.432;2024-03-22T04:36:35;18.30;;;9.60;;
41685;SDS011;27370;42.764;23.432;2024-03-22T04:39:01;15.05;;;8.05;;
41685;SDS011;27370;42.764;23.432;2024-03-22T04:41:26;18.50;;;9.43;;
41685;SDS011;27370;42.764;23.432;2024-03-22T04:43:52;24.95;;;10.25;;
41685;SDS011;27370;42.764;23.432;2024-03-22T04:46:17;21.08;;;10.35;;
41685;SDS011;27370;42.764;23.432;2024-03-22T04:48:42;20.63;;;9.55;;
41685;SDS011;27370;42.764;23.432;2024-03-22T04:51:08;25.38;;;13.15;;
41685;SDS011;27370;42.764;23.432;2024-03-22T04:53:33;20.98;;;11.27;;
41685;SDS011;27370;42.764;23.432;2024-03-22T04:55:59;23.52;;;12.18;;
41685;SDS011;27370;42.764;23.432;2024-03-22T04:58:24;24.35;;;10.88;;
41685;SDS011;27370;42.764;23.432;2024-03-22T05:00:55;21.85;;;12.23;;
41685;SDS011;27370;42.764;23.432;2024-03-22T05:03:21;14.60;;;8.02;;
41685;SDS011;27370;42.764;23.432;2024-03-22T05:05:47;17.25;;;10.30;;
41685;SDS011;27370;42.764;23.432;2024-03-22T05:08:12;16.45;;;9.00;;
41685;SDS011;27370;42.764;23.432;2024-03-22T05:10:38;18.60;;;8.30;;
41685;SDS011;27370;42.764;23.432;2024-03-22T05:13:03;15.85;;;9.43;;
41685;SDS011;27370;42.764;23.432;2024-03-22T05:15:29;17.27;;;8.18;;
41685;SDS011;27370;42.764;23.432;2024-03-22T05:17:55;14.98;;;8.15;;
41685;SDS011;27370;42.764;23.432;2024-03-22T05:20:21;17.25;;;8.23;;
41685;SDS011;27370;42.764;23.432;2024-03-22T05:22:47;16.08;;;8.90;;
41685;SDS011;27370;42.764;23.432;2024-03-22T05:25:13;17.23;;;8.32;;
41685;SDS011;27370;42.764;23.432;2024-03-22T05:27:40;14.73;;;8.32;;
41685;SDS011;27370;42.764;23.432;2024-03-22T05:30:07;13.30;;;7.32;;
41685;SDS011;27370;42.764;23.432;2024-03-22T05:32:33;14.82;;;7.70;;
41685;SDS011;27370;42.764;23.432;2024-03-22T05:34:59;20.95;;;8.85;;
41685;SDS011;27370;42.764;23.432;2024-03-22T05:37:24;15.20;;;7.30;;
41685;SDS011;27370;42.764;23.432;2024-03-22T05:39:50;12.00;;;7.32;;
41685;SDS011;27370;42.764;23.432;2024-03-22T05:42:15;13.65;;;7.18;;
41685;SDS011;27370;42.764;23.432;2024-03-22T05:44:41;13.98;;;7.63;;
41685;SDS011;27370;42.764;23.432;2024-03-22T05:47:06;13.88;;;8.20;;
41685;SDS011;27370;42.764;23.432;2024-03-22T05:49:32;12.70;;;8.13;;
41685;SDS011;27370;42.764;23.432;2024-03-22T05:51:57;17.92;;;8.73;;
41685;SDS011;27370;42.764;23.432;2024-03-22T05:54:23;18.80;;;9.05;;
41685;SDS011;27370;42.764;23.432;2024-03-22T05:56:49;12.30;;;7.13;;
41685;SDS011;27370;42.764;23.432;2024-03-22T05:59:14;10.35;;;6.07;;
41685;SDS011;27370;42.764;23.432;2024-03-22T06:01:40;14.73;;;7.25;;
41685;SDS011;27370;42.764;23.432;2024-03-22T06:04:05;11.70;;;6.40;;
41685;SDS011;27370;42.764;23.432;2024-03-22T06:06:34;11.60;;;5.95;;
41685;SDS011;27370;42.764;23.432;2024-03-22T06:09:00;10.02;;;5.75;;
41685;SDS011;27370;42.764;23.432;2024-03-22T06:11:28;12.18;;;6.93;;
41685;SDS011;27370;42.764;23.432;2024-03-22T06:13:55;11.30;;;5.97;;
41685;SDS011;27370;42.764;23.432;2024-03-22T06:16:20;11.98;;;6.85;;
41685;SDS011;27370;42.764;23.432;2024-03-22T06:18:46;12.65;;;5.05;;
41685;SDS011;27370;42.764;23.432;2024-03-22T06:21:11;7.47;;;4.82;;
41685;SDS011;27370;42.764;23.432;2024-03-22T06:23:39;10.35;;;5.88;;
41685;SDS011;27370;42.764;23.432;2024-03-22T06:26:05;10.38;;;5.68;;
41685;SDS011;27370;42.764;23.432;2024-03-22T06:28:30;10.32;;;6.00;;
41685;SDS011;27370;42.764;23.432;2024-03-22T06:30:56;8.52;;;5.70;;
41685;SDS011;27370;42.764;23.432;2024-03-22T06:33:21;11.70;;;6.07;;
41685;SDS011;27370;42.764;23.432;2024-03-22T06:35:47;12.30;;;6.53;;
41685;SDS011;27370;42.764;23.432;2024-03-22T06:38:13;12.05;;;6.45;;
41685;SDS011;27370;42.764;23.432;2024-03-22T06:40:38;9.85;;;5.72;;
41685;SDS011;27370;42.764;23.432;2024-03-22T06:43:04;8.65;;;5.85;;
41685;SDS011;27370;42.764;23.432;2024-03-22T06:45:29;9.95;;;5.68;;
41685;SDS011;27370;42.764;23.432;2024-03-22T06:47:55;9.30;;;5.75;;
41685;SDS011;27370;42.764;23.432;2024-03-22T06:50:20;9.23;;;5.40;;
41685;SDS011;27370;42.764;23.432;2024-03-22T06:52:52;10.10;;;5.40;;
41685;SDS011;27370;42.764;23.432;2024-03-22T06:55:18;9.25;;;4.55;;
41685;SDS011;27370;42.764;23.432;2024-03-22T06:57:47;7.65;;;6.15;;
41685;SDS011;27370;42.764;23.432;2024-03-22T07:00:13;10.95;;;5.78;;
41685;SDS011;27370;42.764;23.432;2024-03-22T07:02:39;11.80;;;6.35;;
41685;SDS011;27370;42.764;23.432;2024-03-22T07:05:06;16.88;;;6.55;;
41685;SDS011;27370;42.764;23.432;2024-03-22T07:07:33;13.15;;;6.05;;
41685;SDS011;27370;42.764;23.432;2024-03-22T07:09:59;11.20;;;5.63;;
41685;SDS011;27370;42.764;23.432;2024-03-22T07:12:25;10.18;;;6.00;;
41685;SDS011;27370;42.764;23.432;2024-03-22T07:14:51;10.23;;;5.40;;
41685;SDS011;27370;42.764;23.432;2024-03-22T07:17:16;14.50;;;6.38;;
41685;SDS011;27370;42.764;23.432;2024-03-22T07:19:42;9.85;;;6.57;;
41685;SDS011;27370;42.764;23.432;2024-03-22T07:22:08;10.02;;;5.50;;
41685;SDS011;27370;42.764;23.432;2024-03-22T07:24:33;12.02;;;6.20;;
41685;SDS011;27370;42.764;23.432;2024-03-22T07:26:59;15.57;;;6.82;;
41685;SDS011;27370;42.764;23.432;2024-03-22T07:29:24;13.95;;;7.07;;
41685;SDS011;27370;42.764;23.432;2024-03-22T07:31:49;16.48;;;7.03;;
41685;SDS011;27370;42.764;23.432;2024-03-22T07:34:15;14.93;;;6.80;;
41685;SDS011;27370;42.764;23.432;2024-03-22T07:36:40;13.98;;;7.28;;
41685;SDS011;27370;42.764;23.432;2024-03-22T07:39:06;12.00;;;5.53;;
41685;SDS011;27370;42.764;23.432;2024-03-22T07:41:32;11.45;;;5.93;;
41685;SDS011;27370;42.764;23.432;2024-03-22T07:44:01;16.05;;;6.40;;
41685;SDS011;27370;42.764;23.432;2024-03-22T07:46:26;9.90;;;6.40;;
41685;SDS011;27370;42.764;23.432;2024-03-22T07:48:52;11.20;;;5.80;;
41685;SDS011;27370;42.764;23.432;2024-03-22T07:51:18;9.65;;;5.45;;
41685;SDS011;27370;42.764;23.432;2024-03-22T07:53:44;10.05;;;5.15;;
41685;SDS011;27370;42.764;23.432;2024-03-22T07:56:10;11.48;;;5.65;;
41685;SDS011;27370;42.764;23.432;2024-03-22T07:58:36;7.47;;;4.40;;
41685;SDS011;27370;42.764;23.432;2024-03-22T08:01:03;19.10;;;5.32;;
41685;SDS011;27370;42.764;23.432;2024-03-22T08:03:28;7.90;;;3.72;;
41685;SDS011;27370;42.764;23.432;2024-03-22T08:05:54;8.85;;;5.45;;
41685;SDS011;27370;42.764;23.432;2024-03-22T08:08:19;11.45;;;5.22;;
41685;SDS011;27370;42.764;23.432;2024-03-22T08:10:45;5.78;;;4.28;;
41685;SDS011;27370;42.764;23.432;2024-03-22T08:13:11;5.72;;;3.25;;
41685;SDS011;27370;42.764;23.432;2024-03-22T08:15:36;3.75;;;2.00;;
41685;SDS011;27370;42.764;23.432;2024-03-22T08:18:02;6.30;;;3.22;;
41685;SDS011;27370;42.764;23.432;2024-03-22T08:20:27;6.97;;;2.85;;
41685;SDS011;27370;42.764;23.432;2024-03-22T08:22:53;5.68;;;3.22;;
41685;SDS011;27370;42.764;23.432;2024-03-22T08:25:19;4.70;;;3.10;;
41685;SDS011;27370;42.764;23.432;2024-03-22T08:27:46;5.30;;;2.97;;
41685;SDS011;27370;42.764;23.432;2024-03-22T08:30:12;5.22;;;2.80;;
41685;SDS011;27370;42.764;23.432;2024-03-22T08:32:38;3.70;;;2.60;;
41685;SDS011;27370;42.764;23.432;2024-03-22T08:35:04;5.97;;;2.88;;
41685;SDS011;27370;42.764;23.432;2024-03-22T08:37:31;5.78;;;2.80;;
41685;SDS011;27370;42.764;23.432;2024-03-22T08:39:58;6.93;;;2.75;;
41685;SDS011;27370;42.764;23.432;2024-03-22T08:42:23;5.22;;;3.05;;
41685;SDS011;27370;42.764;23.432;2024-03-22T08:44:49;5.03;;;2.80;;
41685;SDS011;27370;42.764;23.432;2024-03-22T08:47:15;3.08;;;1.95;;
41685;SDS011;27370;42.764;23.432;2024-03-22T08:49:40;3.92;;;2.58;;
41685;SDS011;27370;42.764;23.432;2024-03-22T08:52:08;5.57;;;3.13;;
41685;SDS011;27370;42.764;23.432;2024-03-22T08:54:34;3.80;;;2.78;;
41685;SDS011;27370;42.764;23.432;2024-03-22T08:56:59;4.60;;;2.90;;
41685;SDS011;27370;42.764;23.432;2024-03-22T08:59:25;12.48;;;4.85;;
41685;SDS011;27370;42.764;23.432;2024-03-22T09:01:51;5.45;;;3.58;;
41685;SDS011;27370;42.764;23.432;2024-03-22T09:04:17;5.82;;;3.17;;
41685;SDS011;27370;42.764;23.432;2024-03-22T09:06:42;4.13;;;2.85;;
41685;SDS011;27370;42.764;23.432;2024-03-22T09:09:08;5.43;;;3.05;;
41685;SDS011;27370;42.764;23.432;2024-03-22T09:11:34;5.28;;;3.17;;
41685;SDS011;27370;42.764;23.432;2024-03-22T09:14:00;7.20;;;2.97;;
41685;SDS011;27370;42.764;23.432;2024-03-22T09:16:25;5.15;;;2.58;;
41685;SDS011;27370;42.764;23.432;2024-03-22T09:18:51;4.93;;;2.78;;
41685;SDS011;27370;42.764;23.432;2024-03-22T09:21:17;4.70;;;2.08;;
41685;SDS011;27370;42.764;23.432;2024-03-22T09:23:42;2.85;;;2.15;;
41685;SDS011;27370;42.764;23.432;2024-03-22T09:26:08;4.47;;;3.13;;
41685;SDS011;27370;42.764;23.432;2024-03-22T09:28:33;4.93;;;2.60;;
41685;SDS011;27370;42.764;23.432;2024-03-22T09:31:05;7.57;;;2.85;;
41685;SDS011;27370;42.764;23.432;2024-03-22T09:33:34;4.35;;;2.85;;
41685;SDS011;27370;42.764;23.432;2024-03-22T09:36:00;4.15;;;2.88;;
41685;SDS011;27370;42.764;23.432;2024-03-22T09:38:26;6.40;;;2.80;;
41685;SDS011;27370;42.764;23.432;2024-03-22T09:40:52;3.50;;;2.60;;
41685;SDS011;27370;42.764;23.432;2024-03-22T09:43:20;4.25;;;3.20;;
41685;SDS011;27370;42.764;23.432;2024-03-22T09:45:47;8.65;;;3.38;;
41685;SDS011;27370;42.764;23.432;2024-03-22T09:48:13;4.43;;;2.80;;
41685;SDS011;27370;42.764;23.432;2024-03-22T09:50:39;4.97;;;2.80;;
41685;SDS011;27370;42.764;23.432;2024-03-22T09:53:06;5.30;;;3.00;;
41685;SDS011;27370;42.764;23.432;2024-03-22T09:55:33;5.22;;;3.22;;
41685;SDS011;27370;42.764;23.432;2024-03-22T09:58:01;11.27;;;3.45;;
41685;SDS011;27370;42.764;23.432;2024-03-22T10:00:27;5.97;;;3.05;;
41685;SDS011;27370;42.764;23.432;2024-03-22T10:02:53;4.28;;;3.17;;
41685;SDS011;27370;42.764;23.432;2024-03-22T10:05:21;8.27;;;2.80;;
41685;SDS011;27370;42.764;23.432;2024-03-22T10:07:46;5.25;;;3.00;;
41685;SDS011;27370;42.764;23.432;2024-03-22T10:10:12;5.38;;;2.90;;
41685;SDS011;27370;42.764;23.432;2024-03-22T10:12:39;5.18;;;2.63;;
41685;SDS011;27370;42.764;23.432;2024-03-22T10:15:05;4.55;;;2.30;;
41685;SDS011;27370;42.764;23.432;2024-03-22T10:17:34;4.50;;;2.58;;
41685;SDS011;27370;42.764;23.432;2024-03-22T10:20:00;4.35;;;2.78;;
41685;SDS011;27370;42.764;23.432;2024-03-22T10:22:25;4.57;;;1.95;;
41685;SDS011;27370;42.764;23.432;2024-03-22T10:24:52;4.18;;;2.30;;
41685;SDS011;27370;42.764;23.432;2024-03-22T10:27:18;5.95;;;2.58;;
41685;SDS011;27370;42.764;23.432;2024-03-22T10:29:45;4.43;;;2.53;;
41685;SDS011;27370;42.764;23.432;2024-03-22T10:32:12;6.25;;;2.67;;
41685;SDS011;27370;42.764;23.432;2024-03-22T10:34:39;4.47;;;1.85;;
41685;SDS011;27370;42.764;23.432;2024-03-22T10:37:06;4.20;;;2.92;;
41685;SDS011;27370;42.764;23.432;2024-03-22T10:39:33;4.50;;;2.40;;
41685;SDS011;27370;42.764;23.432;2024-03-22T10:42:00;5.45;;;2.63;;
41685;SDS011;27370;42.764;23.432;2024-03-22T10:44:26;9.52;;;2.30;;
41685;SDS011;27370;42.764;23.432;2024-03-22T10:46:51;4.43;;;2.30;;
41685;SDS011;27370;42.764;23.432;2024-03-22T10:49:19;2.90;;;2.08;;
41685;SDS011;27370;42.764;23.432;2024-03-22T10:51:51;5.25;;;3.03;;
41685;SDS011;27370;42.764;23.432;2024-03-22T10:54:25;4.68;;;2.30;;
41685;SDS011;27370;42.764;23.432;2024-03-22T10:56:52;4.38;;;2.25;;
41685;SDS011;27370;42.764;23.432;2024-03-22T10:59:23;6.70;;;2.17;;
41685;SDS011;27370;42.764;23.432;2024-03-22T11:01:49;2.90;;;1.70;;
41685;SDS011;27370;42.764;23.432;2024-03-22T11:04:16;5.07;;;2.50;;
41685;SDS011;27370;42.764;23.432;2024-03-22T11:06:51;2.80;;;1.77;;
41685;SDS011;27370;42.764;23.432;2024-03-22T11:09:23;4.07;;;2.50;;
41685;SDS011;27370;42.764;23.432;2024-03-22T11:11:52;6.75;;;1.52;;
41685;SDS011;27370;42.764;23.432;2024-03-22T11:14:19;11.55;;;5.55;;
41685;SDS011;27370;42.764;23.432;2024-03-22T11:16:49;2.17;;;1.13;;
41685;SDS011;27370;42.764;23.432;2024-03-22T11:19:15;2.92;;;1.77;;
41685;SDS011;27370;42.764;23.432;2024-03-22T11:21:41;4.18;;;2.97;;
41685;SDS011;27370;42.764;23.432;2024-03-22T11:24:07;2.80;;;2.05;;
41685;SDS011;27370;42.764;23.432;2024-03-22T11:26:33;6.05;;;1.95;;
41685;SDS011;27370;42.764;23.432;2024-03-22T11:28:59;3.55;;;2.28;;
41685;SDS011;27370;42.764;23.432;2024-03-22T11:31:24;4.90;;;1.70;;
41685;SDS011;27370;42.764;23.432;2024-03-22T11:33:55;5.15;;;2.00;;
41685;SDS011;27370;42.764;23.432;2024-03-22T11:36:22;3.47;;;2.10;;
41685;SDS011;27370;42.764;23.432;2024-03-22T11:38:49;3.20;;;2.20;;
41685;SDS011;27370;42.764;23.432;2024-03-22T11:41:18;5.95;;;2.53;;
41685;SDS011;27370;42.764;23.432;2024-03-22T11:43:47;3.92;;;2.20;;
41685;SDS011;27370;42.764;23.432;2024-03-22T11:46:13;2.88;;;1.45;;
41685;SDS011;27370;42.764;23.432;2024-03-22T11:48:40;3.50;;;2.50;;
41685;SDS011;27370;42.764;23.432;2024-03-22T11:51:07;2.85;;;1.77;;
41685;SDS011;27370;42.764;23.432;2024-03-22T11:53:34;3.30;;;2.50;;
41685;SDS011;27370;42.764;23.432;2024-03-22T11:56:00;2.70;;;1.80;;
41685;SDS011;27370;42.764;23.432;2024-03-22T11:58:28;4.03;;;2.15;;
41685;SDS011;27370;42.764;23.432;2024-03-22T12:00:55;7.35;;;2.30;;
41685;SDS011;27370;42.764;23.432;2024-03-22T12:03:22;2.78;;;1.95;;
41685;SDS011;27370;42.764;23.432;2024-03-22T12:05:47;4.07;;;2.53;;
41685;SDS011;27370;42.764;23.432;2024-03-22T12:08:16;4.75;;;2.35;;
41685;SDS011;27370;42.764;23.432;2024-03-22T12:10:43;3.30;;;1.98;;
41685;SDS011;27370;42.764;23.432;2024-03-22T12:13:09;3.63;;;2.45;;
41685;SDS011;27370;42.764;23.432;2024-03-22T12:15:34;4.78;;;2.55;;
41685;SDS011;27370;42.764;23.432;2024-03-22T12:18:02;3.60;;;2.47;;
41685;SDS011;27370;42.764;23.432;2024-03-22T12:20:28;4.00;;;2.58;;
41685;SDS011;27370;42.764;23.432;2024-03-22T12:22:53;9.00;;;2.35;;
41685;SDS011;27370;42.764;23.432;2024-03-22T12:25:19;4.38;;;2.58;;
41685;SDS011;27370;42.764;23.432;2024-03-22T12:27:46;5.57;;;2.72;;
41685;SDS011;27370;42.764;23.432;2024-03-22T12:30:12;5.15;;;2.20;;
41685;SDS011;27370;42.764;23.432;2024-03-22T12:32:37;2.83;;;2.13;;
41685;SDS011;27370;42.764;23.432;2024-03-22T12:35:03;5.25;;;2.00;;
41685;SDS011;27370;42.764;23.432;2024-03-22T12:37:29;4.75;;;2.13;;
41685;SDS011;27370;42.764;23.432;2024-03-22T12:39:55;3.33;;;2.55;;
41685;SDS011;27370;42.764;23.432;2024-03-22T12:42:20;5.15;;;2.00;;
41685;SDS011;27370;42.764;23.432;2024-03-22T12:44:46;3.83;;;2.05;;
41685;SDS011;27370;42.764;23.432;2024-03-22T12:47:11;4.32;;;2.55;;
41685;SDS011;27370;42.764;23.432;2024-03-22T12:49:37;4.63;;;2.30;;
41685;SDS011;27370;42.764;23.432;2024-03-22T12:52:04;1.75;;;1.60;;
41685;SDS011;27370;42.764;23.432;2024-03-22T12:54:30;3.42;;;2.30;;
41685;SDS011;27370;42.764;23.432;2024-03-22T12:56:55;4.78;;;2.75;;
41685;SDS011;27370;42.764;23.432;2024-03-22T12:59:21;3.38;;;2.20;;
41685;SDS011;27370;42.764;23.432;2024-03-22T13:01:47;4.38;;;2.90;;
41685;SDS011;27370;42.764;23.432;2024-03-22T13:04:13;5.80;;;2.38;;
41685;SDS011;27370;42.764;23.432;2024-03-22T13:06:38;3.30;;;2.38;;
41685;SDS011;27370;42.764;23.432;2024-03-22T13:09:04;3.63;;;2.35;;
41685;SDS011;27370;42.764;23.432;2024-03-22T13:11:30;5.63;;;3.60;;
41685;SDS011;27370;42.764;23.432;2024-03-22T13:13:57;3.17;;;1.90;;
41685;SDS011;27370;42.764;23.432;2024-03-22T13:16:22;5.05;;;2.35;;
41685;SDS011;27370;42.764;23.432;2024-03-22T13:18:48;9.15;;;2.22;;
41685;SDS011;27370;42.764;23.432;2024-03-22T13:21:14;5.30;;;2.20;;
41685;SDS011;27370;42.764;23.432;2024-03-22T13:23:39;2.40;;;1.85;;
41685;SDS011;27370;42.764;23.432;2024-03-22T13:26:05;5.20;;;2.40;;
41685;SDS011;27370;42.764;23.432;2024-03-22T13:28:31;3.45;;;2.20;;
41685;SDS011;27370;42.764;23.432;2024-03-22T13:31:03;3.53;;;2.13;;
41685;SDS011;27370;42.764;23.432;2024-03-22T13:33:31;2.80;;;1.95;;
41685;SDS011;27370;42.764;23.432;2024-03-22T13:35:58;2.95;;;1.85;;
41685;SDS011;27370;42.764;23.432;2024-03-22T13:38:24;7.07;;;2.47;;
41685;SDS011;27370;42.764;23.432;2024-03-22T13:40:53;4.55;;;2.42;;
41685;SDS011;27370;42.764;23.432;2024-03-22T13:43:22;4.25;;;2.22;;
41685;SDS011;27370;42.764;23.432;2024-03-22T13:45:51;4.20;;;2.33;;
41685;SDS011;27370;42.764;23.432;2024-03-22T13:48:21;6.78;;;3.53;;
41685;SDS011;27370;42.764;23.432;2024-03-22T13:50:53;6.10;;;2.28;;
41685;SDS011;27370;42.764;23.432;2024-03-22T13:53:20;6.22;;;2.25;;
41685;SDS011;27370;42.764;23.432;2024-03-22T13:55:49;8.93;;;2.83;;
41685;SDS011;27370;42.764;23.432;2024-03-22T13:58:18;5.85;;;2.80;;
41685;SDS011;27370;42.764;23.432;2024-03-22T14:00:44;4.03;;;2.42;;
41685;SDS011;27370;42.764;23.432;2024-03-22T14:03:09;4.97;;;2.28;;
41685;SDS011;27370;42.764;23.432;2024-03-22T14:05:35;4.57;;;2.85;;
41685;SDS011;27370;42.764;23.432;2024-03-22T14:08:00;5.35;;;2.30;;
41685;SDS011;27370;42.764;23.432;2024-03-22T14:10:26;4.32;;;2.47;;
41685;SDS011;27370;42.764;23.432;2024-03-22T14:12:52;4.18;;;2.55;;
41685;SDS011;27370;42.764;23.432;2024-03-22T14:15:18;2.67;;;1.90;;
41685;SDS011;27370;42.764;23.432;2024-03-22T14:17:44;2.85;;;2.05;;
41685;SDS011;27370;42.764;23.432;2024-03-22T14:20:10;4.30;;;1.58;;
41685;SDS011;27370;42.764;23.432;2024-03-22T14:22:39;7.75;;;3.13;;